createdAt,value
2023-03-22T00:00:59.108Z,0
2023-03-22T00:06:22.005Z,0
2023-03-22T00:11:47.057Z,0
2023-03-22T00:17:09.456Z,0
2023-03-22T00:22:31.929Z,0
2023-03-22T00:27:54.729Z,0
2023-03-22T00:33:17.989Z,0
2023-03-22T00:38:56.582Z,0
2023-03-22T00:44:24.915Z,0
2023-03-22T00:49:56.882Z,0
2023-03-22T00:55:19.372Z,0
2023-03-22T01:00:42.141Z,0
2023-03-22T01:06:05.427Z,0
2023-03-22T01:11:31.007Z,0
2023-03-22T01:16:55.753Z,0
2023-03-22T01:22:18.545Z,0
2023-03-22T01:27:41.031Z,0
2023-03-22T01:33:03.482Z,0
2023-03-22T01:38:26.029Z,0
2023-03-22T01:43:56.109Z,0
2023-03-22T01:49:18.450Z,0
2023-03-22T01:54:41.349Z,0
2023-03-22T02:00:12.852Z,0
2023-03-22T02:05:35.310Z,0
2023-03-22T02:10:57.678Z,0
2023-03-22T02:16:20.273Z,0
2023-03-22T02:21:42.969Z,0
2023-03-22T02:27:05.235Z,0
2023-03-22T02:32:30.286Z,0
2023-03-22T02:37:52.703Z,0
2023-03-22T02:43:18.120Z,0
2023-03-22T02:48:40.470Z,0
2023-03-22T02:54:03.129Z,0
2023-03-22T02:59:28.153Z,0
2023-03-22T03:04:56.409Z,0
2023-03-22T03:10:19.019Z,0
2023-03-22T03:15:41.770Z,0
2023-03-22T03:21:04.044Z,0
2023-03-22T03:26:26.565Z,0
2023-03-22T03:31:49.307Z,0
2023-03-22T03:37:15.147Z,0
2023-03-22T03:42:40.483Z,0
2023-03-22T03:48:12.141Z,0
2023-03-22T03:53:34.965Z,0
2023-03-22T03:58:57.353Z,0
2023-03-22T04:04:23.165Z,0
2023-03-22T04:09:45.703Z,0
2023-03-22T04:15:08.232Z,0
2023-03-22T04:20:30.603Z,0
2023-03-22T04:26:10.704Z,0
2023-03-22T04:31:33.243Z,0
2023-03-22T04:36:55.492Z,0
2023-03-22T04:42:17.874Z,0
2023-03-22T04:47:43.309Z,0
2023-03-22T04:53:08.630Z,0
2023-03-22T04:58:34.499Z,0
2023-03-22T05:03:56.857Z,0
2023-03-22T05:09:23.559Z,0
2023-03-22T05:14:49.406Z,0
2023-03-22T05:20:12.137Z,0
2023-03-22T05:25:34.901Z,0
2023-03-22T05:30:57.387Z,0
2023-03-22T05:36:20.019Z,0
2023-03-22T05:41:42.762Z,0.1
2023-03-22T05:47:05.092Z,0.1
2023-03-22T05:52:27.692Z,0.1
2023-03-22T05:57:50.350Z,0.1
2023-03-22T06:03:15.155Z,0.2
2023-03-22T06:08:39.780Z,0.2
2023-03-22T06:14:02.569Z,0.2
2023-03-22T06:19:25.058Z,0.2
2023-03-22T06:24:47.905Z,0.3
2023-03-22T06:30:10.381Z,0.4
2023-03-22T06:35:33.161Z,0.5
2023-03-22T06:40:56.213Z,0.4
2023-03-22T06:46:18.905Z,0.4
2023-03-22T06:51:56.351Z,0.6
2023-03-22T06:57:19.200Z,0.6
2023-03-22T07:02:41.570Z,0.3
2023-03-22T07:08:06.355Z,0.2
2023-03-22T07:13:28.764Z,0.3
2023-03-22T07:18:54.579Z,0.5
2023-03-22T07:24:29.327Z,0.6
2023-03-22T07:29:51.733Z,0.6
2023-03-22T07:35:14.184Z,0.9
2023-03-22T07:40:37.104Z,0.7
2023-03-22T07:46:05.755Z,0.5
2023-03-22T07:51:27.965Z,0.4
2023-03-22T07:56:50.961Z,0.4
2023-03-22T08:02:13.604Z,0.7
2023-03-22T08:07:36.665Z,1.1
2023-03-22T08:13:04.992Z,1.1
2023-03-22T08:18:27.313Z,0.6
2023-03-22T08:23:49.927Z,0.5
2023-03-22T08:29:12.595Z,0.5
2023-03-22T08:34:35.305Z,0.6
2023-03-22T08:40:01.018Z,0.8
2023-03-22T08:45:23.972Z,1
2023-03-22T08:50:50.063Z,1.1
2023-03-22T08:56:14.807Z,1.1
2023-03-22T09:06:48.394Z,0.8
2023-03-22T09:12:13.367Z,0.7
2023-03-22T09:17:35.976Z,0.6
2023-03-22T09:22:58.556Z,0.7
2023-03-22T09:28:21.495Z,0.6
2023-03-22T09:34:10.416Z,0.9
2023-03-22T09:39:33.289Z,1.1
2023-03-22T09:44:56.567Z,2.4
2023-03-22T09:50:20.599Z,3.4
2023-03-22T09:55:43.922Z,3.2
2023-03-22T10:01:06.381Z,2
2023-03-22T10:06:29.540Z,1.3
2023-03-22T10:12:00.936Z,1.2
2023-03-22T10:17:26.597Z,1.4
2023-03-22T10:22:49.986Z,1.3
2023-03-22T10:28:18.572Z,1.2
2023-03-22T10:33:42.535Z,1.1
2023-03-22T10:39:07.065Z,1.3
2023-03-22T10:44:31.258Z,1.5
2023-03-22T10:50:04.583Z,1.6
2023-03-22T10:55:32.838Z,1.7
2023-03-22T11:00:58.563Z,1.3
2023-03-22T11:06:38.015Z,1.1
2023-03-22T11:12:00.452Z,1.1
2023-03-22T11:17:23.209Z,1.2
2023-03-22T11:22:46.311Z,1.5
2023-03-22T11:28:09.649Z,1.4
2023-03-22T11:33:35.305Z,1.5
2023-03-22T11:38:58.439Z,1.3
2023-03-22T11:44:33.207Z,1.2
2023-03-22T11:49:58.663Z,1.5
2023-03-22T11:55:31.379Z,1.6
2023-03-22T12:00:54.318Z,1.6
2023-03-22T12:06:17.079Z,1.3
2023-03-22T12:11:39.681Z,1
2023-03-22T12:17:01.813Z,0.8
2023-03-22T12:22:24.323Z,0.9
2023-03-22T12:27:55.776Z,0.8
2023-03-22T12:33:18.482Z,0.8
2023-03-22T12:38:44.477Z,0.8
2023-03-22T12:44:06.926Z,1.2
2023-03-22T12:49:29.697Z,1.2
2023-03-22T12:54:52.439Z,1.2
2023-03-22T13:00:15.054Z,1.2
2023-03-22T13:05:37.795Z,1.2
2023-03-22T13:11:18.125Z,1.1
2023-03-22T13:16:40.670Z,0.9
2023-03-22T13:22:27.037Z,0.7
2023-03-22T13:27:49.314Z,0.8
2023-03-22T13:33:12.036Z,0.8
2023-03-22T13:38:35.229Z,0.7
2023-03-22T13:44:14.201Z,0.5
2023-03-22T13:49:36.456Z,0.4
2023-03-22T13:54:58.612Z,0.5
2023-03-22T14:00:30.269Z,0.5
2023-03-22T14:05:54.554Z,0.7
2023-03-22T14:11:19.535Z,0.7
2023-03-22T14:16:45.905Z,0.8
2023-03-22T14:49:04.000Z,0.9
2023-03-22T14:54:29.524Z,0.8
2023-03-22T14:59:52.255Z,0.9
2023-03-22T15:05:15.427Z,0.8
2023-03-22T15:10:38.141Z,0.6
2023-03-22T15:16:00.441Z,0.5
2023-03-22T15:21:26.368Z,0.4
2023-03-22T15:26:49.346Z,0.5
2023-03-22T15:32:11.709Z,0.6
2023-03-22T15:37:42.233Z,0.6
2023-03-22T15:43:04.841Z,0.6
2023-03-22T15:48:27.198Z,0.5
2023-03-22T15:53:50.131Z,0.5
2023-03-22T15:59:12.795Z,0.5
2023-03-22T16:04:35.302Z,0.4
2023-03-22T16:09:57.801Z,0.4
2023-03-22T16:15:21.241Z,0.4
2023-03-22T16:20:43.751Z,0.4
2023-03-22T16:26:06.260Z,0.3
2023-03-22T16:31:42.846Z,0.2
2023-03-22T16:37:18.813Z,0.1
2023-03-22T16:42:41.515Z,0.1
2023-03-22T16:48:04.310Z,0.1
2023-03-22T16:53:28.420Z,0.2
2023-03-22T16:59:11.725Z,0.1
2023-03-22T17:04:34.194Z,0.1
2023-03-22T17:09:57.389Z,0.1
2023-03-22T17:15:20.076Z,0.1
2023-03-22T17:20:43.030Z,0.1
2023-03-22T17:26:08.441Z,0
2023-03-22T17:31:31.186Z,0
2023-03-22T17:36:54.154Z,0
2023-03-22T17:42:24.814Z,0
2023-03-22T17:53:23.068Z,0
2023-03-22T17:59:39.238Z,0
2023-03-22T18:05:01.848Z,0
2023-03-22T18:10:24.256Z,0
2023-03-22T18:15:46.843Z,0
2023-03-22T18:21:10.495Z,0
2023-03-22T18:32:48.766Z,0
2023-03-22T18:38:56.495Z,0
2023-03-22T18:45:36.239Z,0
2023-03-22T18:59:50.747Z,0
2023-03-22T19:05:13.765Z,0
2023-03-22T19:10:36.068Z,0
2023-03-22T19:16:11.232Z,0
2023-03-22T19:21:34.748Z,0
2023-03-22T19:27:16.063Z,0
2023-03-22T19:33:02.372Z,0
2023-03-22T19:39:18.272Z,0
2023-03-22T19:44:40.649Z,0
2023-03-22T19:50:03.229Z,0
2023-03-22T19:55:33.707Z,0
2023-03-22T20:00:59.290Z,0
2023-03-22T20:06:22.438Z,0
2023-03-22T20:11:45.071Z,0
2023-03-22T20:17:10.458Z,0
2023-03-22T20:22:48.982Z,0
2023-03-22T20:28:11.598Z,0
2023-03-22T20:33:34.024Z,0
2023-03-22T20:38:59.232Z,0
2023-03-22T20:44:21.773Z,0
2023-03-22T20:49:44.653Z,0
2023-03-22T20:55:07.293Z,0
2023-03-22T21:00:30.047Z,0
2023-03-22T21:05:53.471Z,0
2023-03-22T21:11:16.755Z,0
2023-03-22T21:16:48.176Z,0
2023-03-22T21:22:10.698Z,0
2023-03-22T21:27:36.877Z,0
2023-03-22T21:32:59.467Z,0
2023-03-22T21:38:22.045Z,0
2023-03-22T21:43:45.527Z,0
2023-03-22T21:49:08.036Z,0
2023-03-22T21:54:30.744Z,0
2023-03-22T22:00:02.631Z,0
2023-03-22T22:05:25.516Z,0
2023-03-22T22:10:55.971Z,0
2023-03-22T22:16:18.700Z,0
2023-03-22T22:21:43.932Z,0
2023-03-22T22:27:42.768Z,0
2023-03-22T22:33:51.523Z,0
2023-03-22T22:39:13.776Z,0
2023-03-22T22:44:38.879Z,0
2023-03-22T22:50:01.265Z,0
2023-03-22T22:55:24.148Z,0
2023-03-22T23:01:08.350Z,0
2023-03-22T23:06:31.144Z,0
2023-03-22T23:11:53.601Z,0
2023-03-22T23:17:19.034Z,0
2023-03-22T23:22:41.390Z,0
2023-03-22T23:28:07.406Z,0
2023-03-22T23:33:35.630Z,0
2023-03-22T23:38:58.284Z,0
2023-03-22T23:44:21.238Z,0
2023-03-22T23:49:44.447Z,0
2023-03-22T23:55:07.010Z,0
